sensor_id;sensor_type;location;lat;lon;timestamp;temperature;humidity
4828;DHT22;2428;48.732;9.148;2022-08-04T00:02:49;23.20;99.90
4828;DHT22;2428;48.732;9.148;2022-08-04T00:05:44;23.30;99.90
4828;DHT22;2428;48.732;9.148;2022-08-04T00:11:06;23.10;99.90
4828;DHT22;2428;48.732;9.148;2022-08-04T00:13:37;23.10;99.90
4828;DHT22;2428;48.732;9.148;2022-08-04T00:16:05;23.10;99.90
4828;DHT22;2428;48.732;9.148;2022-08-04T00:18:43;23.10;99.90
4828;DHT22;2428;48.732;9.148;2022-08-04T00:21:12;23.10;99.90
4828;DHT22;2428;48.732;9.148;2022-08-04T00:23:42;23.10;99.90
4828;DHT22;2428;48.732;9.148;2022-08-04T00:26:09;23.00;99.90
4828;DHT22;2428;48.732;9.148;2022-08-04T00:28:35;23.00;99.90
4828;DHT22;2428;48.732;9.148;2022-08-04T00:31:03;22.90;99.90
4828;DHT22;2428;48.732;9.148;2022-08-04T00:33:30;22.90;99.90
4828;DHT22;2428;48.732;9.148;2022-08-04T00:35:56;22.90;99.90
4828;DHT22;2428;48.732;9.148;2022-08-04T00:38:22;22.90;99.90
4828;DHT22;2428;48.732;9.148;2022-08-04T00:43:30;22.80;99.90
4828;DHT22;2428;48.732;9.148;2022-08-04T00:49:00;22.80;99.90
4828;DHT22;2428;48.732;9.148;2022-08-04T00:54:17;22.70;99.90
4828;DHT22;2428;48.732;9.148;2022-08-04T01:02:30;22.60;99.90
4828;DHT22;2428;48.732;9.148;2022-08-04T01:18:35;22.50;99.90
4828;DHT22;2428;48.732;9.148;2022-08-04T01:21:05;22.50;99.90
4828;DHT22;2428;48.732;9.148;2022-08-04T01:29:12;22.30;99.90
4828;DHT22;2428;48.732;9.148;2022-08-04T01:34:22;22.20;99.90
4828;DHT22;2428;48.732;9.148;2022-08-04T01:37:02;22.20;99.90
4828;DHT22;2428;48.732;9.148;2022-08-04T01:39:39;22.10;99.90
4828;DHT22;2428;48.732;9.148;2022-08-04T01:42:09;22.10;99.90
4828;DHT22;2428;48.732;9.148;2022-08-04T01:44:36;22.10;99.90
4828;DHT22;2428;48.732;9.148;2022-08-04T01:47:02;22.10;99.90
4828;DHT22;2428;48.732;9.148;2022-08-04T01:49:30;22.10;99.90
4828;DHT22;2428;48.732;9.148;2022-08-04T01:51:57;22.00;99.90
4828;DHT22;2428;48.732;9.148;2022-08-04T01:54:23;22.00;99.90
4828;DHT22;2428;48.732;9.148;2022-08-04T01:56:50;22.00;99.90
4828;DHT22;2428;48.732;9.148;2022-08-04T01:59:19;21.90;99.90
4828;DHT22;2428;48.732;9.148;2022-08-04T02:01:45;21.80;99.90
4828;DHT22;2428;48.732;9.148;2022-08-04T02:04:15;21.80;99.90
4828;DHT22;2428;48.732;9.148;2022-08-04T02:07:11;21.80;99.90
4828;DHT22;2428;48.732;9.148;2022-08-04T02:09:51;21.80;99.90
4828;DHT22;2428;48.732;9.148;2022-08-04T02:12:25;21.70;99.90
4828;DHT22;2428;48.732;9.148;2022-08-04T02:17:29;21.70;99.90
4828;DHT22;2428;48.732;9.148;2022-08-04T02:20:16;21.70;99.90
4828;DHT22;2428;48.732;9.148;2022-08-04T02:23:07;21.60;99.90
4828;DHT22;2428;48.732;9.148;2022-08-04T02:25:46;21.60;99.90
4828;DHT22;2428;48.732;9.148;2022-08-04T02:28:29;21.50;99.90
4828;DHT22;2428;48.732;9.148;2022-08-04T02:34:16;21.50;99.90
4828;DHT22;2428;48.732;9.148;2022-08-04T02:36:47;21.50;99.90
4828;DHT22;2428;48.732;9.148;2022-08-04T02:39:19;21.50;99.90
4828;DHT22;2428;48.732;9.148;2022-08-04T02:41:47;21.50;99.90
4828;DHT22;2428;48.732;9.148;2022-08-04T02:44:21;21.50;99.90
4828;DHT22;2428;48.732;9.148;2022-08-04T02:46:50;21.50;99.90
4828;DHT22;2428;48.732;9.148;2022-08-04T02:49:16;21.50;99.90
4828;DHT22;2428;48.732;9.148;2022-08-04T02:51:45;21.50;99.90
4828;DHT22;2428;48.732;9.148;2022-08-04T02:54:14;21.50;99.90
4828;DHT22;2428;48.732;9.148;2022-08-04T02:56:42;21.40;99.90
4828;DHT22;2428;48.732;9.148;2022-08-04T02:59:11;21.40;99.90
4828;DHT22;2428;48.732;9.148;2022-08-04T03:01:38;21.30;99.90
4828;DHT22;2428;48.732;9.148;2022-08-04T03:36:23;21.00;99.90
4828;DHT22;2428;48.732;9.148;2022-08-04T03:41:53;21.00;99.90
4828;DHT22;2428;48.732;9.148;2022-08-04T03:49:45;20.90;99.90
4828;DHT22;2428;48.732;9.148;2022-08-04T03:55:45;20.80;99.90
4828;DHT22;2428;48.732;9.148;2022-08-04T04:01:15;20.80;99.90
4828;DHT22;2428;48.732;9.148;2022-08-04T04:39:02;21.10;99.90
4828;DHT22;2428;48.732;9.148;2022-08-04T04:41:46;21.00;99.90
4828;DHT22;2428;48.732;9.148;2022-08-04T04:50:11;21.20;99.90
4828;DHT22;2428;48.732;9.148;2022-08-04T04:55:19;21.10;99.90
4828;DHT22;2428;48.732;9.148;2022-08-04T04:57:49;21.20;99.90
4828;DHT22;2428;48.732;9.148;2022-08-04T05:00:16;21.10;99.90
4828;DHT22;2428;48.732;9.148;2022-08-04T05:03:08;21.30;99.90
4828;DHT22;2428;48.732;9.148;2022-08-04T05:14:13;21.30;99.90
4828;DHT22;2428;48.732;9.148;2022-08-04T05:16:45;21.40;99.90
4828;DHT22;2428;48.732;9.148;2022-08-04T05:22:11;21.50;99.90
4828;DHT22;2428;48.732;9.148;2022-08-04T05:24:42;21.60;99.90
4828;DHT22;2428;48.732;9.148;2022-08-04T05:27:19;21.60;99.90
4828;DHT22;2428;48.732;9.148;2022-08-04T05:29:54;21.70;99.90
4828;DHT22;2428;48.732;9.148;2022-08-04T05:32:28;21.80;99.90
4828;DHT22;2428;48.732;9.148;2022-08-04T05:34:59;21.80;99.90
4828;DHT22;2428;48.732;9.148;2022-08-04T05:37:27;21.90;99.90
4828;DHT22;2428;48.732;9.148;2022-08-04T05:40:04;22.00;99.90
4828;DHT22;2428;48.732;9.148;2022-08-04T05:42:31;22.10;99.90
4828;DHT22;2428;48.732;9.148;2022-08-04T05:44:59;22.10;99.90
4828;DHT22;2428;48.732;9.148;2022-08-04T05:47:27;22.20;99.90
4828;DHT22;2428;48.732;9.148;2022-08-04T05:49:53;22.20;99.90
4828;DHT22;2428;48.732;9.148;2022-08-04T05:52:20;22.20;99.90
4828;DHT22;2428;48.732;9.148;2022-08-04T05:54:47;22.30;99.90
4828;DHT22;2428;48.732;9.148;2022-08-04T05:57:15;22.30;99.90
4828;DHT22;2428;48.732;9.148;2022-08-04T05:59:41;22.40;99.90
4828;DHT22;2428;48.732;9.148;2022-08-04T06:02:13;22.40;99.90
4828;DHT22;2428;48.732;9.148;2022-08-04T06:04:41;22.50;99.90
4828;DHT22;2428;48.732;9.148;2022-08-04T06:07:08;22.60;99.90
4828;DHT22;2428;48.732;9.148;2022-08-04T06:09:36;22.60;99.90
4828;DHT22;2428;48.732;9.148;2022-08-04T06:12:05;22.60;99.90
4828;DHT22;2428;48.732;9.148;2022-08-04T06:14:41;22.70;99.90
4828;DHT22;2428;48.732;9.148;2022-08-04T06:17:10;22.80;99.90
4828;DHT22;2428;48.732;9.148;2022-08-04T06:19:39;22.90;99.90
4828;DHT22;2428;48.732;9.148;2022-08-04T06:22:06;23.00;99.90
4828;DHT22;2428;48.732;9.148;2022-08-04T06:24:35;23.00;99.90
4828;DHT22;2428;48.732;9.148;2022-08-04T06:27:03;23.10;99.90
4828;DHT22;2428;48.732;9.148;2022-08-04T06:29:30;23.20;99.90
4828;DHT22;2428;48.732;9.148;2022-08-04T06:32:06;23.20;99.90
4828;DHT22;2428;48.732;9.148;2022-08-04T06:34:58;23.30;99.90
4828;DHT22;2428;48.732;9.148;2022-08-04T06:37:26;23.40;99.90
4828;DHT22;2428;48.732;9.148;2022-08-04T06:39:53;23.60;99.90
4828;DHT22;2428;48.732;9.148;2022-08-04T06:42:25;23.60;99.90
4828;DHT22;2428;48.732;9.148;2022-08-04T06:44:56;23.70;99.90
4828;DHT22;2428;48.732;9.148;2022-08-04T06:47:23;23.80;99.90
4828;DHT22;2428;48.732;9.148;2022-08-04T06:49:51;23.90;99.90
4828;DHT22;2428;48.732;9.148;2022-08-04T06:52:19;24.00;99.90
4828;DHT22;2428;48.732;9.148;2022-08-04T06:54:50;24.10;99.90
4828;DHT22;2428;48.732;9.148;2022-08-04T06:57:25;24.20;99.90
4828;DHT22;2428;48.732;9.148;2022-08-04T07:00:11;24.20;99.90
4828;DHT22;2428;48.732;9.148;2022-08-04T07:02:51;24.30;99.90
4828;DHT22;2428;48.732;9.148;2022-08-04T07:05:18;24.30;99.90
4828;DHT22;2428;48.732;9.148;2022-08-04T07:07:45;24.50;99.90
4828;DHT22;2428;48.732;9.148;2022-08-04T07:10:11;24.60;99.90
4828;DHT22;2428;48.732;9.148;2022-08-04T07:12:38;24.60;99.90
4828;DHT22;2428;48.732;9.148;2022-08-04T07:15:05;24.60;99.90
4828;DHT22;2428;48.732;9.148;2022-08-04T07:17:34;24.70;99.90
4828;DHT22;2428;48.732;9.148;2022-08-04T07:20:00;24.80;99.90
4828;DHT22;2428;48.732;9.148;2022-08-04T07:22:27;24.80;99.90
4828;DHT22;2428;48.732;9.148;2022-08-04T07:24:57;25.00;99.90
4828;DHT22;2428;48.732;9.148;2022-08-04T07:27:24;25.10;99.90
4828;DHT22;2428;48.732;9.148;2022-08-04T07:29:50;25.10;99.90
4828;DHT22;2428;48.732;9.148;2022-08-04T07:32:18;25.20;99.90
4828;DHT22;2428;48.732;9.148;2022-08-04T07:34:49;25.20;99.90
4828;DHT22;2428;48.732;9.148;2022-08-04T07:37:15;25.20;99.90
4828;DHT22;2428;48.732;9.148;2022-08-04T07:39:41;25.20;99.90
4828;DHT22;2428;48.732;9.148;2022-08-04T07:42:07;25.20;99.90
4828;DHT22;2428;48.732;9.148;2022-08-04T07:44:34;25.30;99.90
4828;DHT22;2428;48.732;9.148;2022-08-04T07:47:01;25.30;99.90
4828;DHT22;2428;48.732;9.148;2022-08-04T07:49:26;25.40;99.90
4828;DHT22;2428;48.732;9.148;2022-08-04T07:51:55;25.40;99.90
4828;DHT22;2428;48.732;9.148;2022-08-04T07:54:22;25.60;99.90
4828;DHT22;2428;48.732;9.148;2022-08-04T07:56:48;25.80;99.90
4828;DHT22;2428;48.732;9.148;2022-08-04T07:59:15;25.90;99.90
4828;DHT22;2428;48.732;9.148;2022-08-04T08:01:41;26.00;99.90
4828;DHT22;2428;48.732;9.148;2022-08-04T08:04:08;26.20;99.90
4828;DHT22;2428;48.732;9.148;2022-08-04T08:06:35;26.40;99.90
4828;DHT22;2428;48.732;9.148;2022-08-04T08:09:16;26.60;99.90
4828;DHT22;2428;48.732;9.148;2022-08-04T08:11:52;26.80;99.90
4828;DHT22;2428;48.732;9.148;2022-08-04T08:14:18;26.90;99.90
4828;DHT22;2428;48.732;9.148;2022-08-04T08:16:45;26.90;99.90
4828;DHT22;2428;48.732;9.148;2022-08-04T08:19:11;27.00;99.90
4828;DHT22;2428;48.732;9.148;2022-08-04T08:21:37;27.00;99.90
4828;DHT22;2428;48.732;9.148;2022-08-04T08:24:04;27.00;99.90
4828;DHT22;2428;48.732;9.148;2022-08-04T08:26:30;27.00;99.90
4828;DHT22;2428;48.732;9.148;2022-08-04T08:28:55;27.00;99.90
4828;DHT22;2428;48.732;9.148;2022-08-04T08:31:21;27.00;99.90
4828;DHT22;2428;48.732;9.148;2022-08-04T08:33:50;27.00;99.90
4828;DHT22;2428;48.732;9.148;2022-08-04T09:10:25;28.00;99.90
4828;DHT22;2428;48.732;9.148;2022-08-04T09:13:01;28.20;99.90
4828;DHT22;2428;48.732;9.148;2022-08-04T09:15:38;28.30;99.90
4828;DHT22;2428;48.732;9.148;2022-08-04T09:18:17;28.30;99.90
4828;DHT22;2428;48.732;9.148;2022-08-04T09:20:55;28.40;99.90
4828;DHT22;2428;48.732;9.148;2022-08-04T09:23:34;28.40;99.90
4828;DHT22;2428;48.732;9.148;2022-08-04T09:26:18;28.40;99.90
4828;DHT22;2428;48.732;9.148;2022-08-04T09:29:02;28.40;99.90
4828;DHT22;2428;48.732;9.148;2022-08-04T09:31:35;28.40;99.90
4828;DHT22;2428;48.732;9.148;2022-08-04T09:34:28;28.50;99.90
4828;DHT22;2428;48.732;9.148;2022-08-04T09:37:11;28.60;99.90
4828;DHT22;2428;48.732;9.148;2022-08-04T09:39:46;28.80;99.90
4828;DHT22;2428;48.732;9.148;2022-08-04T09:42:34;28.90;99.90
4828;DHT22;2428;48.732;9.148;2022-08-04T09:45:20;29.00;99.90
4828;DHT22;2428;48.732;9.148;2022-08-04T09:47:56;29.10;99.90
4828;DHT22;2428;48.732;9.148;2022-08-04T09:50:39;29.20;99.90
4828;DHT22;2428;48.732;9.148;2022-08-04T09:58:27;29.60;98.40
4828;DHT22;2428;48.732;9.148;2022-08-04T10:01:07;29.70;98.20
4828;DHT22;2428;48.732;9.148;2022-08-04T10:03:36;29.90;97.50
4828;DHT22;2428;48.732;9.148;2022-08-04T10:06:14;30.10;98.40
4828;DHT22;2428;48.732;9.148;2022-08-04T10:19:37;30.80;95.30
4828;DHT22;2428;48.732;9.148;2022-08-04T10:22:20;31.00;94.30
4828;DHT22;2428;48.732;9.148;2022-08-04T10:27:48;32.30;93.40
4828;DHT22;2428;48.732;9.148;2022-08-04T10:30:17;33.80;92.00
4828;DHT22;2428;48.732;9.148;2022-08-04T10:35:37;37.50;76.40
4828;DHT22;2428;48.732;9.148;2022-08-04T10:40:46;40.00;67.90
4828;DHT22;2428;48.732;9.148;2022-08-04T10:49:03;41.50;56.50
4828;DHT22;2428;48.732;9.148;2022-08-04T10:52:26;42.40;58.50
4828;DHT22;2428;48.732;9.148;2022-08-04T10:57:55;43.50;54.60
4828;DHT22;2428;48.732;9.148;2022-08-04T11:00:25;44.20;53.40
4828;DHT22;2428;48.732;9.148;2022-08-04T11:03:08;43.20;48.50
4828;DHT22;2428;48.732;9.148;2022-08-04T11:08:17;43.20;50.90
4828;DHT22;2428;48.732;9.148;2022-08-04T11:13:16;43.20;46.80
4828;DHT22;2428;48.732;9.148;2022-08-04T11:15:53;43.10;47.40
4828;DHT22;2428;48.732;9.148;2022-08-04T11:21:27;43.10;44.00
4828;DHT22;2428;48.732;9.148;2022-08-04T11:24:03;42.80;45.10
4828;DHT22;2428;48.732;9.148;2022-08-04T11:26:40;43.00;45.70
4828;DHT22;2428;48.732;9.148;2022-08-04T11:29:22;43.30;45.80
4828;DHT22;2428;48.732;9.148;2022-08-04T11:31:49;43.40;46.50
4828;DHT22;2428;48.732;9.148;2022-08-04T11:39:44;42.40;46.70
4828;DHT22;2428;48.732;9.148;2022-08-04T11:42:21;42.60;46.50
4828;DHT22;2428;48.732;9.148;2022-08-04T11:47:52;42.40;44.10
4828;DHT22;2428;48.732;9.148;2022-08-04T11:50:43;41.70;43.90
4828;DHT22;2428;48.732;9.148;2022-08-04T11:53:15;41.70;48.90
4828;DHT22;2428;48.732;9.148;2022-08-04T11:55:44;40.90;44.70
4828;DHT22;2428;48.732;9.148;2022-08-04T11:58:10;41.20;46.20
4828;DHT22;2428;48.732;9.148;2022-08-04T12:00:41;41.00;44.60
4828;DHT22;2428;48.732;9.148;2022-08-04T12:06:19;40.60;45.80
4828;DHT22;2428;48.732;9.148;2022-08-04T12:14:32;39.60;46.80
4828;DHT22;2428;48.732;9.148;2022-08-04T12:17:03;39.10;48.20
4828;DHT22;2428;48.732;9.148;2022-08-04T12:19:49;38.60;49.40
4828;DHT22;2428;48.732;9.148;2022-08-04T12:22:25;38.70;49.20
4828;DHT22;2428;48.732;9.148;2022-08-04T12:25:07;39.30;49.70
4828;DHT22;2428;48.732;9.148;2022-08-04T12:27:40;40.00;48.80
4828;DHT22;2428;48.732;9.148;2022-08-04T12:30:10;40.10;48.00
4828;DHT22;2428;48.732;9.148;2022-08-04T12:35:21;39.10;50.20
4828;DHT22;2428;48.732;9.148;2022-08-04T12:38:11;38.10;48.50
4828;DHT22;2428;48.732;9.148;2022-08-04T12:40:48;37.20;50.90
4828;DHT22;2428;48.732;9.148;2022-08-04T12:45:55;37.20;52.30
4828;DHT22;2428;48.732;9.148;2022-08-04T12:48:23;37.60;51.20
4828;DHT22;2428;48.732;9.148;2022-08-04T12:50:52;37.80;50.30
4828;DHT22;2428;48.732;9.148;2022-08-04T12:53:20;37.60;50.00
4828;DHT22;2428;48.732;9.148;2022-08-04T12:55:48;37.10;49.70
4828;DHT22;2428;48.732;9.148;2022-08-04T12:58:17;36.50;51.20
4828;DHT22;2428;48.732;9.148;2022-08-04T13:00:54;36.50;52.10
4828;DHT22;2428;48.732;9.148;2022-08-04T13:03:23;36.60;52.50
4828;DHT22;2428;48.732;9.148;2022-08-04T13:05:54;36.60;52.30
4828;DHT22;2428;48.732;9.148;2022-08-04T13:08:21;36.60;52.30
4828;DHT22;2428;48.732;9.148;2022-08-04T13:10:51;36.40;52.00
4828;DHT22;2428;48.732;9.148;2022-08-04T13:13:20;36.30;52.70
4828;DHT22;2428;48.732;9.148;2022-08-04T13:15:57;36.10;52.20
4828;DHT22;2428;48.732;9.148;2022-08-04T13:18:24;36.00;54.00
4828;DHT22;2428;48.732;9.148;2022-08-04T13:20:50;35.90;52.30
4828;DHT22;2428;48.732;9.148;2022-08-04T13:23:17;36.00;51.70
4828;DHT22;2428;48.732;9.148;2022-08-04T13:25:45;35.80;52.00
4828;DHT22;2428;48.732;9.148;2022-08-04T13:28:15;35.60;52.00
4828;DHT22;2428;48.732;9.148;2022-08-04T13:30:52;35.40;53.80
4828;DHT22;2428;48.732;9.148;2022-08-04T13:33:19;35.10;54.80
4828;DHT22;2428;48.732;9.148;2022-08-04T13:35:45;34.70;51.10
4828;DHT22;2428;48.732;9.148;2022-08-04T13:38:13;34.70;55.00
4828;DHT22;2428;48.732;9.148;2022-08-04T13:40:42;34.90;55.00
4828;DHT22;2428;48.732;9.148;2022-08-04T13:43:09;35.10;54.60
4828;DHT22;2428;48.732;9.148;2022-08-04T13:45:40;35.20;54.10
4828;DHT22;2428;48.732;9.148;2022-08-04T13:48:06;35.20;53.50
4828;DHT22;2428;48.732;9.148;2022-08-04T13:50:36;35.10;57.00
4828;DHT22;2428;48.732;9.148;2022-08-04T13:53:02;35.10;55.10
4828;DHT22;2428;48.732;9.148;2022-08-04T13:55:34;35.20;53.20
4828;DHT22;2428;48.732;9.148;2022-08-04T13:58:28;35.20;54.70
4828;DHT22;2428;48.732;9.148;2022-08-04T14:01:00;35.50;54.10
4828;DHT22;2428;48.732;9.148;2022-08-04T14:06:17;35.70;54.50
4828;DHT22;2428;48.732;9.148;2022-08-04T14:08:55;35.80;54.10
4828;DHT22;2428;48.732;9.148;2022-08-04T14:11:33;35.80;56.30
4828;DHT22;2428;48.732;9.148;2022-08-04T14:14:03;35.80;53.60
4828;DHT22;2428;48.732;9.148;2022-08-04T14:16:37;35.90;53.50
4828;DHT22;2428;48.732;9.148;2022-08-04T14:19:02;35.70;51.30
4828;DHT22;2428;48.732;9.148;2022-08-04T14:21:34;35.20;51.30
4828;DHT22;2428;48.732;9.148;2022-08-04T14:24:00;34.90;52.90
4828;DHT22;2428;48.732;9.148;2022-08-04T14:26:28;34.90;54.10
4828;DHT22;2428;48.732;9.148;2022-08-04T14:29:15;34.80;54.50
4828;DHT22;2428;48.732;9.148;2022-08-04T14:31:41;34.90;55.20
4828;DHT22;2428;48.732;9.148;2022-08-04T14:34:07;35.10;55.00
4828;DHT22;2428;48.732;9.148;2022-08-04T14:36:41;35.20;52.80
4828;DHT22;2428;48.732;9.148;2022-08-04T14:39:07;35.50;56.40
4828;DHT22;2428;48.732;9.148;2022-08-04T14:41:45;35.60;54.40
4828;DHT22;2428;48.732;9.148;2022-08-04T14:44:11;35.90;53.90
4828;DHT22;2428;48.732;9.148;2022-08-04T14:46:51;36.20;53.90
4828;DHT22;2428;48.732;9.148;2022-08-04T14:49:17;36.30;53.20
4828;DHT22;2428;48.732;9.148;2022-08-04T14:51:57;36.40;52.60
4828;DHT22;2428;48.732;9.148;2022-08-04T14:54:31;36.40;54.30
4828;DHT22;2428;48.732;9.148;2022-08-04T14:57:01;36.50;53.10
4828;DHT22;2428;48.732;9.148;2022-08-04T14:59:39;36.40;53.00
4828;DHT22;2428;48.732;9.148;2022-08-04T15:02:05;36.50;52.80
4828;DHT22;2428;48.732;9.148;2022-08-04T15:04:31;36.50;52.60
4828;DHT22;2428;48.732;9.148;2022-08-04T15:06:58;36.60;53.50
4828;DHT22;2428;48.732;9.148;2022-08-04T15:09:25;36.60;53.20
4828;DHT22;2428;48.732;9.148;2022-08-04T15:11:52;36.70;52.30
4828;DHT22;2428;48.732;9.148;2022-08-04T15:14:20;36.50;51.90
4828;DHT22;2428;48.732;9.148;2022-08-04T15:16:45;36.50;54.00
4828;DHT22;2428;48.732;9.148;2022-08-04T15:19:11;36.50;54.60
4828;DHT22;2428;48.732;9.148;2022-08-04T15:21:38;36.40;52.60
4828;DHT22;2428;48.732;9.148;2022-08-04T15:24:04;36.30;52.10
4828;DHT22;2428;48.732;9.148;2022-08-04T15:26:34;36.30;52.00
4828;DHT22;2428;48.732;9.148;2022-08-04T15:29:22;36.20;52.20
4828;DHT22;2428;48.732;9.148;2022-08-04T15:31:50;36.00;52.40
4828;DHT22;2428;48.732;9.148;2022-08-04T15:34:17;36.00;52.60
4828;DHT22;2428;48.732;9.148;2022-08-04T15:36:50;36.00;53.20
4828;DHT22;2428;48.732;9.148;2022-08-04T15:39:33;36.00;52.10
4828;DHT22;2428;48.732;9.148;2022-08-04T15:47:15;36.00;53.20
4828;DHT22;2428;48.732;9.148;2022-08-04T15:49:43;36.00;52.70
4828;DHT22;2428;48.732;9.148;2022-08-04T15:52:13;36.00;52.60
4828;DHT22;2428;48.732;9.148;2022-08-04T15:54:42;36.00;52.20
4828;DHT22;2428;48.732;9.148;2022-08-04T15:57:09;35.80;51.70
4828;DHT22;2428;48.732;9.148;2022-08-04T15:59:55;35.80;53.60
4828;DHT22;2428;48.732;9.148;2022-08-04T16:02:42;35.70;52.70
4828;DHT22;2428;48.732;9.148;2022-08-04T16:13:05;35.40;52.60
4828;DHT22;2428;48.732;9.148;2022-08-04T16:18:02;35.00;51.80
4828;DHT22;2428;48.732;9.148;2022-08-04T16:20:28;34.80;52.60
4828;DHT22;2428;48.732;9.148;2022-08-04T16:23:02;34.60;52.10
4828;DHT22;2428;48.732;9.148;2022-08-04T16:25:45;34.60;53.00
4828;DHT22;2428;48.732;9.148;2022-08-04T16:28:45;34.50;54.00
4828;DHT22;2428;48.732;9.148;2022-08-04T16:31:11;34.40;52.80
4828;DHT22;2428;48.732;9.148;2022-08-04T16:33:38;34.30;52.40
4828;DHT22;2428;48.732;9.148;2022-08-04T16:36:07;34.20;54.10
4828;DHT22;2428;48.732;9.148;2022-08-04T16:38:59;34.20;53.40
4828;DHT22;2428;48.732;9.148;2022-08-04T16:41:41;34.10;53.30
4828;DHT22;2428;48.732;9.148;2022-08-04T16:46:56;34.10;54.40
4828;DHT22;2428;48.732;9.148;2022-08-04T16:49:24;33.90;54.10
4828;DHT22;2428;48.732;9.148;2022-08-04T16:51:50;33.80;54.40
4828;DHT22;2428;48.732;9.148;2022-08-04T16:54:16;33.70;54.20
4828;DHT22;2428;48.732;9.148;2022-08-04T16:56:42;33.70;53.50
4828;DHT22;2428;48.732;9.148;2022-08-04T16:59:09;33.60;53.60
4828;DHT22;2428;48.732;9.148;2022-08-04T17:01:36;33.60;53.80
4828;DHT22;2428;48.732;9.148;2022-08-04T17:04:03;33.60;54.20
4828;DHT22;2428;48.732;9.148;2022-08-04T17:06:36;33.60;55.30
4828;DHT22;2428;48.732;9.148;2022-08-04T17:09:05;33.60;56.10
4828;DHT22;2428;48.732;9.148;2022-08-04T17:11:31;33.50;56.40
4828;DHT22;2428;48.732;9.148;2022-08-04T17:13:57;33.50;56.70
4828;DHT22;2428;48.732;9.148;2022-08-04T17:16:22;33.40;55.00
4828;DHT22;2428;48.732;9.148;2022-08-04T17:18:53;33.30;56.00
4828;DHT22;2428;48.732;9.148;2022-08-04T17:21:27;33.20;55.20
4828;DHT22;2428;48.732;9.148;2022-08-04T17:23:55;33.20;56.10
4828;DHT22;2428;48.732;9.148;2022-08-04T17:26:25;33.00;56.00
4828;DHT22;2428;48.732;9.148;2022-08-04T17:28:53;33.00;56.70
4828;DHT22;2428;48.732;9.148;2022-08-04T17:31:24;32.90;56.00
4828;DHT22;2428;48.732;9.148;2022-08-04T17:33:52;32.90;56.00
4828;DHT22;2428;48.732;9.148;2022-08-04T17:36:28;32.80;57.20
4828;DHT22;2428;48.732;9.148;2022-08-04T17:38:58;32.80;56.30
4828;DHT22;2428;48.732;9.148;2022-08-04T17:41:25;32.70;56.40
4828;DHT22;2428;48.732;9.148;2022-08-04T17:43:52;32.60;56.00
4828;DHT22;2428;48.732;9.148;2022-08-04T17:49:01;32.60;56.40
4828;DHT22;2428;48.732;9.148;2022-08-04T17:51:54;32.50;56.40
4828;DHT22;2428;48.732;9.148;2022-08-04T17:56:52;32.50;56.40
4828;DHT22;2428;48.732;9.148;2022-08-04T17:59:41;32.40;57.60
4828;DHT22;2428;48.732;9.148;2022-08-04T18:02:07;32.40;56.70
4828;DHT22;2428;48.732;9.148;2022-08-04T18:04:53;32.30;57.00
4828;DHT22;2428;48.732;9.148;2022-08-04T18:14:51;32.00;57.40
4828;DHT22;2428;48.732;9.148;2022-08-04T18:17:37;32.00;57.70
4828;DHT22;2428;48.732;9.148;2022-08-04T18:20:08;31.90;57.80
4828;DHT22;2428;48.732;9.148;2022-08-04T18:22:35;31.90;58.40
4828;DHT22;2428;48.732;9.148;2022-08-04T18:25:01;31.80;58.20
4828;DHT22;2428;48.732;9.148;2022-08-04T18:27:29;31.70;59.90
4828;DHT22;2428;48.732;9.148;2022-08-04T18:29:55;31.70;58.80
4828;DHT22;2428;48.732;9.148;2022-08-04T18:32:21;31.60;67.60
4828;DHT22;2428;48.732;9.148;2022-08-04T18:34:50;31.50;65.20
4828;DHT22;2428;48.732;9.148;2022-08-04T18:37:19;31.40;67.60
4828;DHT22;2428;48.732;9.148;2022-08-04T18:39:45;31.30;70.10
4828;DHT22;2428;48.732;9.148;2022-08-04T18:42:12;31.10;73.30
4828;DHT22;2428;48.732;9.148;2022-08-04T18:44:37;30.90;76.60
4828;DHT22;2428;48.732;9.148;2022-08-04T18:47:04;30.80;75.70
4828;DHT22;2428;48.732;9.148;2022-08-04T18:49:30;30.60;77.20
4828;DHT22;2428;48.732;9.148;2022-08-04T18:51:56;30.50;78.00
4828;DHT22;2428;48.732;9.148;2022-08-04T18:54:22;30.30;77.60
4828;DHT22;2428;48.732;9.148;2022-08-04T18:56:52;30.20;77.70
4828;DHT22;2428;48.732;9.148;2022-08-04T18:59:19;30.10;80.70
4828;DHT22;2428;48.732;9.148;2022-08-04T19:01:45;30.00;81.80
4828;DHT22;2428;48.732;9.148;2022-08-04T19:04:11;29.90;80.20
4828;DHT22;2428;48.732;9.148;2022-08-04T19:06:37;29.80;80.90
4828;DHT22;2428;48.732;9.148;2022-08-04T19:09:03;29.70;83.80
4828;DHT22;2428;48.732;9.148;2022-08-04T19:11:30;29.50;84.90
4828;DHT22;2428;48.732;9.148;2022-08-04T19:13:58;29.40;86.70
4828;DHT22;2428;48.732;9.148;2022-08-04T19:16:24;29.30;87.40
4828;DHT22;2428;48.732;9.148;2022-08-04T19:18:50;29.20;87.90
4828;DHT22;2428;48.732;9.148;2022-08-04T19:21:15;29.00;87.00
4828;DHT22;2428;48.732;9.148;2022-08-04T19:23:41;29.00;89.00
4828;DHT22;2428;48.732;9.148;2022-08-04T19:26:06;28.80;89.70
4828;DHT22;2428;48.732;9.148;2022-08-04T19:28:34;28.70;90.60
4828;DHT22;2428;48.732;9.148;2022-08-04T19:31:01;28.80;91.30
4828;DHT22;2428;48.732;9.148;2022-08-04T19:33:30;28.50;91.50
4828;DHT22;2428;48.732;9.148;2022-08-04T19:35:56;28.40;92.20
4828;DHT22;2428;48.732;9.148;2022-08-04T19:38:24;28.40;93.20
4828;DHT22;2428;48.732;9.148;2022-08-04T19:40:49;28.30;94.00
4828;DHT22;2428;48.732;9.148;2022-08-04T19:43:18;28.30;94.60
4828;DHT22;2428;48.732;9.148;2022-08-04T19:45:48;28.20;94.70
4828;DHT22;2428;48.732;9.148;2022-08-04T19:48:14;28.10;95.70
4828;DHT22;2428;48.732;9.148;2022-08-04T19:50:42;28.10;95.30
4828;DHT22;2428;48.732;9.148;2022-08-04T19:53:08;28.00;95.30
4828;DHT22;2428;48.732;9.148;2022-08-04T19:55:37;27.90;95.20
4828;DHT22;2428;48.732;9.148;2022-08-04T19:58:10;27.90;97.00
4828;DHT22;2428;48.732;9.148;2022-08-04T20:00:37;27.90;95.90
4828;DHT22;2428;48.732;9.148;2022-08-04T20:03:08;27.80;95.30
4828;DHT22;2428;48.732;9.148;2022-08-04T20:05:42;27.90;95.30
4828;DHT22;2428;48.732;9.148;2022-08-04T20:08:08;27.70;98.10
4828;DHT22;2428;48.732;9.148;2022-08-04T20:10:34;27.70;98.90
4828;DHT22;2428;48.732;9.148;2022-08-04T20:13:00;27.60;99.50
4828;DHT22;2428;48.732;9.148;2022-08-04T20:15:25;27.50;99.30
4828;DHT22;2428;48.732;9.148;2022-08-04T20:17:51;27.50;99.90
4828;DHT22;2428;48.732;9.148;2022-08-04T20:20:16;27.50;99.90
4828;DHT22;2428;48.732;9.148;2022-08-04T20:22:47;27.50;99.90
4828;DHT22;2428;48.732;9.148;2022-08-04T20:25:13;27.40;99.90
4828;DHT22;2428;48.732;9.148;2022-08-04T20:27:42;27.30;99.90
4828;DHT22;2428;48.732;9.148;2022-08-04T20:30:10;27.30;99.90
4828;DHT22;2428;48.732;9.148;2022-08-04T20:32:36;27.20;99.90
4828;DHT22;2428;48.732;9.148;2022-08-04T20:35:02;27.10;99.90
4828;DHT22;2428;48.732;9.148;2022-08-04T20:37:28;27.10;99.90
4828;DHT22;2428;48.732;9.148;2022-08-04T20:39:58;27.00;99.90
4828;DHT22;2428;48.732;9.148;2022-08-04T20:42:27;27.00;99.90
4828;DHT22;2428;48.732;9.148;2022-08-04T20:44:56;26.90;99.90
4828;DHT22;2428;48.732;9.148;2022-08-04T20:47:22;26.90;99.90
4828;DHT22;2428;48.732;9.148;2022-08-04T20:49:53;26.90;99.90
4828;DHT22;2428;48.732;9.148;2022-08-04T20:52:21;26.80;99.90
4828;DHT22;2428;48.732;9.148;2022-08-04T20:54:47;26.90;99.90
4828;DHT22;2428;48.732;9.148;2022-08-04T20:57:12;26.80;99.90
4828;DHT22;2428;48.732;9.148;2022-08-04T20:59:41;26.80;99.90
4828;DHT22;2428;48.732;9.148;2022-08-04T21:02:06;26.70;99.90
4828;DHT22;2428;48.732;9.148;2022-08-04T21:04:32;26.60;99.90
4828;DHT22;2428;48.732;9.148;2022-08-04T21:07:07;26.60;99.90